Nezperce, Idaho
Current Conditions -  °F | °C
As of 5:35 AM on Thursday 18 Dec 2014 (Local Time) from KGIC Reporting Station
Overcast Overcast  
Wind Chill: 37°   Ceiling: 3800
Heat Index: 37°   Visibility: 10mi
Dew Point: 32°   Wind: 3mph
Humidity: 80%   Direction: 260°W
Pressure: 30.02"   Gusts: NA
Location:  46.23°N, 116.24°W
Report Text: KGIC 181335Z AUTO 26003KT 10SM BKN038 OVC060 03/00 A3002 RMK AO1 T00291002
Loading
Personal Weather Stations






























Interactive Weather Map New forecast layout! Learn more

10-Day Weather Forecast

Advertisements
Track Severe Weather on mobile